Outwater, New Jersey
Current Conditions -  °F | °C
As of 2:51 PM on Saturday 25 Oct 2014 (Local Time) from KTEB Reporting Station
Clear Clear  
Wind Chill: 67°   Ceiling: Unl
Heat Index: 67°   Visibility: 10mi
Dew Point: 41°   Wind: 10mph
Humidity: 39%   Direction: 230°SW
Pressure: 29.69"   Gusts: NA
Location:  40.8788°N, 74.1075°W
Report Text: KTEB 251851Z 23009KT 10SM CLR 19/05 A2969 RMK AO2 SLP054 T01940050
Loading
Personal Weather Stations






























Interactive Weather Map
Tropical Storm Tracking
New forecast layout! Learn more

10-Day Weather Forecast

Advertisements
Track Severe Weather on mobile